createdAt,value
2018-10-12T00:01:16.126Z,100872.05
2018-10-12T00:03:44.459Z,100879.34
2018-10-12T00:06:12.771Z,100873.56
2018-10-12T00:08:41.257Z,100877.69
2018-10-12T00:11:09.575Z,100872.55
2018-10-12T00:13:37.886Z,100877.84
2018-10-12T00:16:06.343Z,100878.53
2018-10-12T00:18:34.651Z,100875.72
2018-10-12T00:21:02.955Z,100875.89
2018-10-12T00:23:31.246Z,100882.54
2018-10-12T00:25:59.689Z,100882.88
2018-10-12T00:28:27.987Z,100883.06
2018-10-12T00:30:56.287Z,100887.86
2018-10-12T00:33:24.567Z,100889.33
2018-10-12T00:35:52.899Z,100885.88
2018-10-12T00:38:21.172Z,100893.52
2018-10-12T00:40:49.427Z,100892.37
2018-10-12T00:43:17.698Z,100887.91
2018-10-12T00:45:45.991Z,100881.45
2018-10-12T00:48:14.314Z,100887.22
2018-10-12T00:50:42.572Z,100885.58
2018-10-12T00:53:10.855Z,100884.42
2018-10-12T00:55:39.124Z,100882.27
2018-10-12T00:58:07.550Z,100884.89
2018-10-12T01:00:35.848Z,100890.36
2018-10-12T01:03:10.719Z,100890.51
2018-10-12T01:05:39.015Z,100878.45
2018-10-12T01:08:07.298Z,100872.47
2018-10-12T01:10:35.583Z,100880.43
2018-10-12T01:13:03.870Z,100884.70
2018-10-12T01:15:32.154Z,100884.54
2018-10-12T01:18:00.437Z,100881.91
2018-10-12T01:20:28.694Z,100887.55
2018-10-12T01:22:56.998Z,100892.86
2018-10-12T01:25:25.312Z,100904.29
2018-10-12T01:27:53.595Z,100893.71
2018-10-12T01:30:21.895Z,100896.00
2018-10-12T01:32:55.534Z,100892.72
2018-10-12T01:35:23.844Z,100893.89
2018-10-12T01:37:52.114Z,100905.13
2018-10-12T01:40:20.397Z,100902.81
2018-10-12T01:42:48.723Z,100902.83
2018-10-12T01:45:16.983Z,100905.30
2018-10-12T01:47:45.299Z,100908.13
2018-10-12T01:50:13.611Z,100905.81
2018-10-12T01:52:41.896Z,100901.86
2018-10-12T01:55:10.255Z,100898.86
2018-10-12T01:57:38.535Z,100905.81
2018-10-12T02:00:07.003Z,100904.34
2018-10-12T02:02:35.267Z,100899.20
2018-10-12T02:05:03.655Z,100902.67
2018-10-12T02:07:31.923Z,100908.15
2018-10-12T02:10:00.231Z,100908.98
2018-10-12T02:12:28.498Z,100911.13
2018-10-12T02:14:56.799Z,100908.48
2018-10-12T02:17:25.059Z,100910.95
2018-10-12T02:19:53.320Z,100899.71
2018-10-12T02:22:21.600Z,100903.33
2018-10-12T02:24:49.858Z,100905.15
2018-10-12T02:27:18.127Z,100898.21
2018-10-12T02:29:46.403Z,100899.36
2018-10-12T02:32:14.672Z,100892.43
2018-10-12T02:34:42.934Z,100900.52
2018-10-12T02:37:11.316Z,100900.19
2018-10-12T02:39:39.632Z,100904.16
2018-10-12T02:42:07.893Z,100895.91
2018-10-12T02:44:36.171Z,100910.28
2018-10-12T02:47:04.436Z,100918.07
2018-10-12T02:49:32.755Z,100927.48
2018-10-12T02:52:03.355Z,100926.83
2018-10-12T02:54:31.665Z,100939.56
2018-10-12T02:56:59.969Z,100940.20
2018-10-12T02:59:28.270Z,100945.17
2018-10-12T03:01:56.546Z,100943.17
2018-10-12T03:04:24.886Z,100939.06
2018-10-12T03:06:53.187Z,100940.03
2018-10-12T03:09:21.471Z,100943.17
2018-10-12T03:11:49.740Z,100946.32
2018-10-12T03:14:18.035Z,100954.27
2018-10-12T03:16:46.303Z,100958.73
2018-10-12T03:19:14.615Z,100958.55
2018-10-12T03:21:42.922Z,100956.73
2018-10-12T03:24:11.314Z,100968.64
2018-10-12T03:26:39.604Z,100965.02
2018-10-12T03:29:07.891Z,100972.11
2018-10-12T03:31:36.194Z,100972.11
2018-10-12T03:34:04.505Z,100980.39
2018-10-12T03:36:32.776Z,100984.19
2018-10-12T03:39:01.088Z,100989.30
2018-10-12T03:41:29.436Z,100992.94
2018-10-12T03:43:57.711Z,100994.27
2018-10-12T03:46:25.979Z,100993.77
2018-10-12T03:48:54.326Z,101001.70
2018-10-12T03:51:22.600Z,101001.53
2018-10-12T03:53:50.840Z,101004.52
2018-10-12T03:56:19.099Z,101003.02
2018-10-12T03:58:47.399Z,101008.95
2018-10-12T04:01:15.692Z,101011.95
2018-10-12T04:03:44.019Z,101023.00
2018-10-12T04:06:12.312Z,101024.50
2018-10-12T04:08:40.616Z,101020.67
2018-10-12T04:11:08.894Z,101019.03
2018-10-12T04:13:37.205Z,101022.31
2018-10-12T04:16:05.507Z,101025.59
2018-10-12T04:18:33.890Z,101028.74
2018-10-12T04:21:02.146Z,101038.97
2018-10-12T04:23:30.459Z,101050.36
2018-10-12T04:25:58.848Z,101048.20
2018-10-12T04:28:27.226Z,101053.48
2018-10-12T04:30:55.641Z,101057.57
2018-10-12T04:33:23.973Z,101055.59
2018-10-12T04:35:52.219Z,101055.59
2018-10-12T04:38:20.539Z,101059.20
2018-10-12T04:41:04.591Z,101070.41
2018-10-12T04:43:33.307Z,101056.67
2018-10-12T04:46:03.395Z,101061.63
2018-10-12T04:48:31.811Z,101067.25
2018-10-12T04:51:00.487Z,101070.25
2018-10-12T04:53:28.782Z,101079.19
2018-10-12T04:55:57.099Z,101077.20
2018-10-12T04:58:25.431Z,101079.34
2018-10-12T05:00:53.744Z,101073.75
2018-10-12T05:03:22.077Z,101083.00
2018-10-12T05:05:50.409Z,101083.17
2018-10-12T05:08:18.818Z,101088.29
2018-10-12T05:10:47.128Z,101096.08
2018-10-12T05:13:15.410Z,101100.69
2018-10-12T05:15:43.967Z,101101.68
2018-10-12T05:18:12.267Z,101106.95
2018-10-12T05:20:40.610Z,101111.86
2018-10-12T05:23:08.898Z,101111.98
2018-10-12T05:25:37.195Z,101115.42
2018-10-12T05:28:05.483Z,101123.19
2018-10-12T05:30:33.767Z,101130.77
2018-10-12T05:33:02.057Z,101141.01
2018-10-12T05:35:30.435Z,101148.11
2018-10-12T05:37:58.718Z,101146.79
2018-10-12T05:40:27.095Z,101150.95
2018-10-12T05:42:55.476Z,101143.65
2018-10-12T05:45:24.085Z,101145.61
2018-10-12T05:47:52.371Z,101153.84
2018-10-12T05:50:20.683Z,101162.78
2018-10-12T05:52:49.027Z,101172.55
2018-10-12T05:55:17.337Z,101175.39
2018-10-12T05:57:45.648Z,101177.91
2018-10-12T06:00:14.033Z,101183.19
2018-10-12T06:02:42.336Z,101185.00
2018-10-12T06:05:10.621Z,101188.97
2018-10-12T06:07:38.899Z,101187.31
2018-10-12T06:10:07.353Z,101197.95
2018-10-12T06:12:35.707Z,101200.42
2018-10-12T06:15:04.298Z,101212.52
2018-10-12T06:17:32.583Z,101212.20
2018-10-12T06:20:00.882Z,101215.67
2018-10-12T06:22:29.152Z,101224.95
2018-10-12T06:24:57.444Z,101231.89
2018-10-12T06:27:25.754Z,101236.55
2018-10-12T06:29:54.060Z,101236.08
2018-10-12T06:32:22.367Z,101239.80
2018-10-12T06:34:50.665Z,101246.44
2018-10-12T06:37:19.796Z,101246.95
2018-10-12T06:39:49.210Z,101253.31
2018-10-12T06:42:18.301Z,101252.70
2018-10-12T06:44:46.603Z,101256.39
2018-10-12T06:47:14.919Z,101253.93
2018-10-12T06:49:43.200Z,101254.97
2018-10-12T06:52:24.739Z,101255.33
2018-10-12T06:54:53.053Z,101261.02
2018-10-12T06:57:21.339Z,101261.08
2018-10-12T06:59:49.650Z,101268.41
2018-10-12T07:02:19.634Z,101278.54
2018-10-12T07:04:48.785Z,101284.08
2018-10-12T07:07:17.848Z,101281.81
2018-10-12T07:09:46.404Z,101279.00
2018-10-12T07:12:15.395Z,101279.05
2018-10-12T07:14:43.895Z,101272.99
2018-10-12T07:17:12.183Z,101277.30
2018-10-12T07:19:40.571Z,101280.97
2018-10-12T07:22:08.816Z,101291.61
2018-10-12T07:24:37.111Z,101296.08
2018-10-12T07:27:08.687Z,101303.38
2018-10-12T07:29:36.955Z,101307.00
2018-10-12T07:32:05.247Z,101303.68
2018-10-12T07:34:33.522Z,101301.54
2018-10-12T07:37:01.880Z,101302.83
2018-10-12T07:39:30.192Z,101306.83
2018-10-12T07:41:58.496Z,101307.30
2018-10-12T07:44:26.941Z,101306.95
2018-10-12T07:46:55.240Z,101307.74
2018-10-12T07:49:23.868Z,101314.19
2018-10-12T07:51:52.198Z,101323.80
2018-10-12T07:54:20.531Z,101332.73
2018-10-12T07:56:48.833Z,101341.86
2018-10-12T07:59:17.116Z,101342.13
2018-10-12T08:01:45.391Z,101350.41
2018-10-12T08:04:13.691Z,101350.87
2018-10-12T08:06:42.026Z,101358.28
2018-10-12T08:09:10.270Z,101351.95
2018-10-12T08:11:38.930Z,101354.70
2018-10-12T08:14:07.480Z,101350.30
2018-10-12T08:16:35.809Z,101347.09
2018-10-12T08:19:04.275Z,101352.34
2018-10-12T08:21:32.583Z,101346.89
2018-10-12T08:24:00.957Z,101343.83
2018-10-12T08:26:29.247Z,101344.59
2018-10-12T08:28:57.543Z,101344.75
2018-10-12T08:31:25.923Z,101349.84
2018-10-12T08:33:54.120Z,101348.81
2018-10-12T08:36:23.365Z,101350.96
2018-10-12T08:38:51.671Z,101360.09
2018-10-12T08:41:20.266Z,101357.88
2018-10-12T08:43:48.580Z,101372.11
2018-10-12T08:46:16.891Z,101372.52
2018-10-12T08:48:45.188Z,101374.66
2018-10-12T08:51:13.467Z,101374.41
2018-10-12T08:53:42.060Z,101385.03
2018-10-12T08:56:10.348Z,101382.45
2018-10-12T08:58:38.626Z,101386.07
2018-10-12T09:01:07.367Z,101388.48
2018-10-12T09:03:35.664Z,101393.91
2018-10-12T09:06:03.931Z,101399.98
2018-10-12T09:08:32.203Z,101397.58
2018-10-12T09:11:00.511Z,101401.05
2018-10-12T09:13:28.815Z,101400.16
2018-10-12T09:15:57.080Z,101398.94
2018-10-12T09:18:25.628Z,101398.72
2018-10-12T09:20:54.205Z,101404.50
2018-10-12T09:23:22.483Z,101400.33
2018-10-12T09:25:50.755Z,101403.28
2018-10-12T09:28:19.004Z,101404.38
2018-10-12T09:30:47.287Z,101414.13
2018-10-12T09:33:15.594Z,101405.20
2018-10-12T09:35:43.875Z,101408.87
2018-10-12T09:38:12.167Z,101417.84
2018-10-12T09:40:40.441Z,101416.95
2018-10-12T09:43:08.794Z,101421.09
2018-10-12T09:45:37.047Z,101415.50
2018-10-12T09:48:05.302Z,101409.19
2018-10-12T09:50:33.587Z,101402.70
2018-10-12T09:53:01.859Z,101407.15
2018-10-12T09:55:30.126Z,101409.67
2018-10-12T09:57:58.395Z,101407.88
2018-10-12T10:00:32.103Z,101411.58
2018-10-12T10:03:05.627Z,101399.59
2018-10-12T10:05:34.019Z,101403.52
2018-10-12T10:08:02.497Z,101398.55
2018-10-12T10:10:30.655Z,101402.96
2018-10-12T10:12:58.919Z,101397.05
2018-10-12T10:15:27.259Z,101389.26
2018-10-12T10:17:55.535Z,101390.93
2018-10-12T10:20:23.861Z,101386.06
2018-10-12T10:22:52.111Z,101385.86
2018-10-12T10:25:20.431Z,101386.47
2018-10-12T10:27:48.706Z,101388.69
2018-10-12T10:30:16.983Z,101393.34
2018-10-12T10:32:45.219Z,101393.05
2018-10-12T10:40:00.199Z,101380.36
2018-10-12T10:42:28.468Z,101380.83
2018-10-12T10:44:56.763Z,101374.06
2018-10-12T10:47:24.998Z,101369.37
2018-10-12T10:49:53.274Z,101365.48
2018-10-12T10:52:21.543Z,101361.35
2018-10-12T10:54:49.837Z,101356.17
2018-10-12T10:57:18.131Z,101354.41
2018-10-12T10:59:46.396Z,101369.55
2018-10-12T11:02:14.659Z,101363.06
2018-10-12T11:04:42.961Z,101362.25
2018-10-12T11:07:11.244Z,101352.66
2018-10-12T11:09:39.523Z,101356.07
2018-10-12T11:12:07.807Z,101362.65
2018-10-12T11:14:36.218Z,101355.44
2018-10-12T11:17:04.478Z,101354.50
2018-10-12T11:19:32.821Z,101354.31
2018-10-12T11:22:01.071Z,101357.00
2018-10-12T11:24:29.378Z,101351.21
2018-10-12T11:26:57.652Z,101355.98
2018-10-12T11:29:25.936Z,101360.20
2018-10-12T11:31:54.195Z,101357.85
2018-10-12T11:34:22.599Z,101360.41
2018-10-12T11:36:50.868Z,101361.76
2018-10-12T11:39:19.147Z,101361.12
2018-10-12T11:41:47.459Z,101353.49
2018-10-12T11:44:15.769Z,101345.78
2018-10-12T11:46:44.029Z,101347.32
2018-10-12T11:49:12.307Z,101349.89
2018-10-12T11:51:40.595Z,101342.22
2018-10-12T11:54:08.869Z,101341.37
2018-10-12T11:56:37.155Z,101341.70
2018-10-12T11:59:05.458Z,101341.17
2018-10-12T12:01:33.731Z,101334.66
2018-10-12T12:04:02.000Z,101338.66
2018-10-12T12:06:30.286Z,101336.38
2018-10-12T12:08:58.587Z,101336.88
2018-10-12T12:11:26.886Z,101331.81
2018-10-12T12:13:55.270Z,101333.26
2018-10-12T12:16:23.547Z,101327.70
2018-10-12T12:18:51.814Z,101325.61
2018-10-12T12:21:20.095Z,101329.09
2018-10-12T12:23:48.342Z,101334.38
2018-10-12T12:26:16.618Z,101334.45
2018-10-12T12:28:44.864Z,101328.34
2018-10-12T12:31:13.152Z,101332.89
2018-10-12T12:33:41.490Z,101334.36
2018-10-12T12:36:11.455Z,101335.58
2018-10-12T12:38:39.531Z,101328.45
2018-10-12T12:41:07.815Z,101328.22
2018-10-12T12:43:36.115Z,101332.94
2018-10-12T12:46:04.391Z,101325.11
2018-10-12T12:48:33.088Z,101334.34
2018-10-12T12:51:00.997Z,101330.83
2018-10-12T12:53:29.288Z,101333.44
2018-10-12T12:55:57.539Z,101330.42
2018-10-12T12:58:25.834Z,101333.73
2018-10-12T13:00:54.121Z,101332.39
2018-10-12T13:03:22.429Z,101330.66
2018-10-12T13:05:50.715Z,101331.99
2018-10-12T13:08:19.071Z,101327.57
2018-10-12T13:10:47.343Z,101335.39
2018-10-12T13:13:15.623Z,101333.63
2018-10-12T13:15:43.925Z,101332.80
2018-10-12T13:18:12.215Z,101328.64
2018-10-12T13:20:40.512Z,101333.39
2018-10-12T13:23:08.792Z,101336.47
2018-10-12T13:25:37.085Z,101333.13
2018-10-12T13:28:05.490Z,101340.53
2018-10-12T13:30:33.784Z,101343.81
2018-10-12T13:33:02.063Z,101338.84
2018-10-12T13:35:30.352Z,101342.30
2018-10-12T13:37:58.769Z,101342.27
2018-10-12T13:40:27.071Z,101345.70
2018-10-12T13:42:55.368Z,101353.32
2018-10-12T13:45:23.755Z,101347.61
2018-10-12T13:47:51.981Z,101347.47
2018-10-12T13:50:20.263Z,101342.30
2018-10-12T13:52:48.536Z,101345.74
2018-10-12T13:55:16.800Z,101349.25
2018-10-12T13:57:45.095Z,101343.05
2018-10-12T14:00:13.391Z,101341.42
2018-10-12T14:02:41.716Z,101343.91
2018-10-12T14:05:10.056Z,101349.91
2018-10-12T14:07:38.351Z,101351.25
2018-10-12T14:10:06.627Z,101347.33
2018-10-12T14:12:34.980Z,101346.31
2018-10-12T14:15:03.279Z,101345.70
2018-10-12T14:17:31.577Z,101346.88
2018-10-12T14:19:59.865Z,101341.61
2018-10-12T14:22:28.141Z,101346.53
2018-10-12T14:24:56.416Z,101346.14
2018-10-12T14:27:24.723Z,101346.56
2018-10-12T14:29:53.007Z,101349.16
2018-10-12T14:32:21.313Z,101341.81
2018-10-12T14:34:49.575Z,101348.23
2018-10-12T14:37:17.859Z,101348.33
2018-10-12T14:39:46.126Z,101345.97
2018-10-12T14:42:14.404Z,101347.55
2018-10-12T14:44:42.740Z,101340.50
2018-10-12T14:47:11.090Z,101344.77
2018-10-12T14:49:39.388Z,101346.92
2018-10-12T14:52:07.688Z,101343.81
2018-10-12T14:54:35.943Z,101352.56
2018-10-12T14:57:06.511Z,101352.78
2018-10-12T14:59:34.793Z,101353.31
2018-10-12T15:02:03.107Z,101350.00
2018-10-12T15:04:31.347Z,101347.55
2018-10-12T15:06:59.652Z,101344.63
2018-10-12T15:09:27.903Z,101343.52
2018-10-12T15:11:56.199Z,101333.73
2018-10-12T15:14:35.866Z,101330.12
2018-10-12T15:17:04.215Z,101334.05
2018-10-12T15:19:32.655Z,101340.14
2018-10-12T15:22:00.933Z,101340.14
2018-10-12T15:24:29.191Z,101333.53
2018-10-12T15:26:57.488Z,101338.47
2018-10-12T15:29:25.823Z,101340.34
2018-10-12T15:31:54.107Z,101340.24
2018-10-12T15:34:22.371Z,101345.52
2018-10-12T15:36:50.651Z,101351.72
2018-10-12T15:39:18.930Z,101354.66
2018-10-12T15:41:47.234Z,101345.69
2018-10-12T15:44:15.491Z,101351.38
2018-10-12T15:46:43.811Z,101349.53
2018-10-12T15:49:12.063Z,101349.13
2018-10-12T15:51:40.368Z,101344.88
2018-10-12T15:54:08.774Z,101343.78
2018-10-12T15:56:37.065Z,101346.55
2018-10-12T15:59:05.325Z,101351.52
2018-10-12T16:01:33.619Z,101352.97
2018-10-12T16:04:01.930Z,101351.45
2018-10-12T16:06:30.356Z,101351.87
2018-10-12T16:08:58.681Z,101354.56
2018-10-12T16:11:27.007Z,101353.63
2018-10-12T16:13:56.162Z,101350.73
2018-10-12T16:16:24.415Z,101352.30
2018-10-12T16:18:52.759Z,101352.53
2018-10-12T16:21:21.059Z,101354.58
2018-10-12T16:23:50.978Z,101345.72
2018-10-12T16:26:23.450Z,101354.17
2018-10-12T16:28:51.718Z,101353.72
2018-10-12T16:31:20.017Z,101350.62
2018-10-12T16:33:48.286Z,101357.73
2018-10-12T16:36:16.627Z,101360.59
2018-10-12T16:38:44.844Z,101360.40
2018-10-12T16:41:13.120Z,101365.96
2018-10-12T16:43:41.370Z,101366.95
2018-10-12T16:46:09.660Z,101371.77
2018-10-12T16:48:38.357Z,101371.97
2018-10-12T16:51:06.991Z,101373.81
2018-10-12T16:53:35.385Z,101379.66
2018-10-12T16:56:03.683Z,101381.91
2018-10-12T16:58:31.983Z,101383.64
2018-10-12T17:01:00.275Z,101386.41
2018-10-12T17:03:28.554Z,101387.88
2018-10-12T17:05:56.828Z,101387.14
2018-10-12T17:08:25.106Z,101383.52
2018-10-12T17:10:53.381Z,101389.78
2018-10-12T17:13:21.667Z,101392.85
2018-10-12T17:15:49.963Z,101390.27
2018-10-12T17:18:18.249Z,101397.65
2018-10-12T17:20:46.474Z,101399.37
2018-10-12T17:23:14.735Z,101401.84
2018-10-12T17:25:43.028Z,101401.80
2018-10-12T17:28:11.343Z,101403.22
2018-10-12T17:30:39.615Z,101405.12
2018-10-12T17:33:07.897Z,101403.56
2018-10-12T17:35:36.199Z,101412.66
2018-10-12T17:38:04.516Z,101408.52
2018-10-12T17:40:32.835Z,101406.95
2018-10-12T17:43:01.200Z,101410.41
2018-10-12T17:45:29.408Z,101412.71
2018-10-12T17:47:57.745Z,101413.69
2018-10-12T17:50:33.431Z,101415.42
2018-10-12T17:53:02.829Z,101419.06
2018-10-12T17:55:31.095Z,101423.31
2018-10-12T17:57:59.358Z,101419.23
2018-10-12T18:00:27.645Z,101426.70
2018-10-12T18:02:55.895Z,101427.77
2018-10-12T18:05:24.172Z,101430.88
2018-10-12T18:07:52.447Z,101434.95
2018-10-12T18:10:20.762Z,101429.67
2018-10-12T18:12:49.037Z,101430.22
2018-10-12T18:15:17.339Z,101432.75
2018-10-12T18:17:45.641Z,101426.14
2018-10-12T18:20:13.923Z,101417.17
2018-10-12T18:22:42.224Z,101418.40
2018-10-12T18:25:10.535Z,101428.11
2018-10-12T18:27:38.822Z,101420.78
2018-10-12T18:30:07.080Z,101418.18
2018-10-12T18:32:35.363Z,101423.07
2018-10-12T18:35:03.648Z,101422.27
2018-10-12T18:37:31.890Z,101416.66
2018-10-12T18:40:00.167Z,101424.00
2018-10-12T18:42:28.492Z,101428.06
2018-10-12T18:44:56.759Z,101425.45
2018-10-12T18:47:25.047Z,101427.66
2018-10-12T18:49:53.373Z,101433.88
2018-10-12T18:52:21.677Z,101435.12
2018-10-12T18:54:49.929Z,101440.31
2018-10-12T18:57:18.222Z,101433.50
2018-10-12T18:59:46.661Z,101435.55
2018-10-12T19:02:14.812Z,101445.87
2018-10-12T19:04:43.201Z,101444.08
2018-10-12T19:07:11.432Z,101438.80
2018-10-12T19:09:39.716Z,101438.98
2018-10-12T19:12:08.037Z,101441.00
2018-10-12T19:14:36.315Z,101440.85
2018-10-12T19:17:04.631Z,101446.19
2018-10-12T19:19:32.968Z,101447.20
2018-10-12T19:22:01.221Z,101450.38
2018-10-12T19:24:29.476Z,101446.07
2018-10-12T19:26:57.753Z,101455.88
2018-10-12T19:29:26.053Z,101461.05
2018-10-12T19:31:54.418Z,101454.89
2018-10-12T19:34:22.714Z,101460.22
2018-10-12T19:36:50.974Z,101464.08
2018-10-12T19:39:19.247Z,101469.92
2018-10-12T19:41:47.511Z,101471.77
2018-10-12T19:44:15.875Z,101469.09
2018-10-12T19:46:44.148Z,101471.77
2018-10-12T19:49:12.405Z,101469.26
2018-10-12T19:51:40.716Z,101472.63
2018-10-12T19:54:08.997Z,101475.97
2018-10-12T19:56:37.283Z,101472.84
2018-10-12T19:59:05.596Z,101474.34
2018-10-12T20:01:33.933Z,101472.69
2018-10-12T20:04:02.229Z,101480.38
2018-10-12T20:06:31.089Z,101482.06
2018-10-12T20:08:59.404Z,101481.91
2018-10-12T20:11:27.706Z,101490.27
2018-10-12T20:13:55.976Z,101485.80
2018-10-12T20:16:24.257Z,101479.49
2018-10-12T20:18:52.558Z,101482.86
2018-10-12T20:21:20.835Z,101485.57
2018-10-12T20:23:49.148Z,101487.41
2018-10-12T20:26:17.416Z,101484.95
2018-10-12T20:28:45.689Z,101484.95
2018-10-12T20:31:13.995Z,101485.19
2018-10-12T20:33:42.319Z,101489.19
2018-10-12T20:36:10.662Z,101498.04
2018-10-12T20:38:38.949Z,101490.23
2018-10-12T20:41:07.410Z,101493.92
2018-10-12T20:43:35.693Z,101500.10
2018-10-12T20:46:04.007Z,101502.92
2018-10-12T20:48:32.262Z,101494.97
2018-10-12T20:51:00.593Z,101489.67
2018-10-12T20:53:28.879Z,101494.33
2018-10-12T20:55:57.177Z,101491.86
2018-10-12T20:58:25.490Z,101494.68
2018-10-12T21:00:53.774Z,101495.19
2018-10-12T21:03:22.071Z,101501.84
2018-10-12T21:05:50.355Z,101494.87
2018-10-12T21:08:18.628Z,101495.38
2018-10-12T21:10:46.915Z,101491.03
2018-10-12T21:13:15.303Z,101498.52
2018-10-12T21:15:43.620Z,101494.84
2018-10-12T21:18:11.907Z,101497.16
2018-10-12T21:20:40.187Z,101496.42
2018-10-12T21:23:08.476Z,101495.02
2018-10-12T21:25:36.747Z,101494.28
2018-10-12T21:28:05.035Z,101496.90
2018-10-12T21:30:33.367Z,101504.46
2018-10-12T21:33:01.711Z,101501.08
2018-10-12T21:35:29.988Z,101495.03
2018-10-12T21:37:58.297Z,101493.96
2018-10-12T21:40:26.714Z,101500.34
2018-10-12T21:42:54.851Z,101501.78
2018-10-12T21:45:23.342Z,101496.75
2018-10-12T21:47:51.636Z,101498.22
2018-10-12T21:50:20.254Z,101491.67
2018-10-12T21:52:48.572Z,101497.67
2018-10-12T21:55:16.938Z,101503.83
2018-10-12T21:57:45.234Z,101498.03
2018-10-12T22:00:13.577Z,101501.02
2018-10-12T22:02:41.869Z,101495.31
2018-10-12T22:05:10.137Z,101494.13
2018-10-12T22:07:38.437Z,101490.92
2018-10-12T22:10:06.792Z,101492.21
2018-10-12T22:12:35.091Z,101499.51
2018-10-12T22:15:03.337Z,101491.48
2018-10-12T22:17:31.640Z,101492.30
2018-10-12T22:20:00.206Z,101493.80
2018-10-12T22:22:28.502Z,101494.52
2018-10-12T22:24:56.817Z,101494.37
2018-10-12T22:27:25.132Z,101492.38
2018-10-12T22:29:53.429Z,101489.39
2018-10-12T22:32:21.696Z,101487.23
2018-10-12T22:34:49.988Z,101483.41
2018-10-12T22:37:18.258Z,101480.57
2018-10-12T22:39:46.634Z,101478.22
2018-10-12T22:42:15.384Z,101483.19
2018-10-12T22:44:43.950Z,101474.36
2018-10-12T22:47:12.261Z,101468.71
2018-10-12T22:49:40.716Z,101469.59
2018-10-12T22:52:08.995Z,101466.77
2018-10-12T22:54:37.510Z,101461.09
2018-10-12T22:57:05.798Z,101461.60
2018-10-12T22:59:34.070Z,101463.45
2018-10-12T23:02:02.409Z,101465.44
2018-10-12T23:04:30.682Z,101460.61
2018-10-12T23:06:59.003Z,101459.08
2018-10-12T23:09:27.286Z,101464.73
2018-10-12T23:11:55.535Z,101466.58
2018-10-12T23:14:23.842Z,101465.08
2018-10-12T23:16:52.118Z,101462.92
2018-10-12T23:19:20.438Z,101456.78
2018-10-12T23:21:48.700Z,101455.13
2018-10-12T23:24:17.055Z,101458.82
2018-10-12T23:26:45.358Z,101456.83
2018-10-12T23:29:13.623Z,101456.01
2018-10-12T23:31:41.974Z,101455.66
2018-10-12T23:34:10.499Z,101453.75
2018-10-12T23:36:38.808Z,101451.62
2018-10-12T23:39:09.406Z,101443.50
2018-10-12T23:41:37.832Z,101448.34
2018-10-12T23:44:06.507Z,101447.72
2018-10-12T23:46:35.047Z,101446.28
2018-10-12T23:49:03.327Z,101452.65
2018-10-12T23:51:31.596Z,101440.53
2018-10-12T23:54:00.091Z,101448.38
2018-10-12T23:56:28.413Z,101442.39
2018-10-12T23:58:56.685Z,101439.73
